createdAt,value
2018-05-12T00:00:09.294Z,77.60
2018-05-12T00:02:35.376Z,77.60
2018-05-12T00:05:01.622Z,77.60
2018-05-12T00:07:28.195Z,77.60
2018-05-12T00:09:54.353Z,77.60
2018-05-12T00:12:21.324Z,78.00
2018-05-12T00:14:47.477Z,78.00
2018-05-12T00:17:13.585Z,78.50
2018-05-12T00:19:39.796Z,79.00
2018-05-12T00:22:05.925Z,79.50
2018-05-12T00:24:32.074Z,79.80
2018-05-12T00:26:58.238Z,80.10
2018-05-12T00:29:24.352Z,80.30
2018-05-12T00:31:50.516Z,81.50
2018-05-12T00:34:16.618Z,80.60
2018-05-12T00:36:43.516Z,80.10
2018-05-12T00:39:09.625Z,80.00
2018-05-12T00:41:35.859Z,79.60
2018-05-12T00:44:05.131Z,79.50
2018-05-12T00:46:31.271Z,79.80
2018-05-12T00:48:59.446Z,80.30
2018-05-12T00:51:27.223Z,80.60
2018-05-12T00:53:53.550Z,81.00
2018-05-12T00:56:19.673Z,81.20
2018-05-12T00:58:46.060Z,81.20
2018-05-12T01:01:12.189Z,80.90
2018-05-12T01:03:39.123Z,80.30
2018-05-12T01:06:05.410Z,80.30
2018-05-12T01:08:31.741Z,79.90
2018-05-12T01:10:58.019Z,79.60
2018-05-12T01:13:26.444Z,80.20
2018-05-12T01:15:56.474Z,80.40
2018-05-12T01:18:22.634Z,80.90
2018-05-12T01:20:48.760Z,80.80
2018-05-12T01:23:15.914Z,80.90
2018-05-12T01:25:42.027Z,80.90
2018-05-12T01:28:08.161Z,80.60
2018-05-12T01:30:34.284Z,80.10
2018-05-12T01:33:00.610Z,81.50
2018-05-12T01:35:26.783Z,82.90
2018-05-12T01:37:52.865Z,83.40
2018-05-12T01:40:18.988Z,83.40
2018-05-12T01:42:45.128Z,82.80
2018-05-12T01:45:11.995Z,82.00
2018-05-12T01:47:38.369Z,82.00
2018-05-12T01:50:04.481Z,81.80
2018-05-12T01:52:30.605Z,81.90
2018-05-12T01:54:56.732Z,81.80
2018-05-12T01:57:22.796Z,81.50
2018-05-12T01:59:49.542Z,81.20
2018-05-12T02:02:15.658Z,81.10
2018-05-12T02:04:41.790Z,81.00
2018-05-12T02:07:08.662Z,81.40
2018-05-12T02:09:34.836Z,81.20
2018-05-12T02:12:01.069Z,81.80
2018-05-12T02:14:27.333Z,82.30
2018-05-12T02:16:53.518Z,82.60
2018-05-12T02:19:20.013Z,83.40
2018-05-12T02:21:46.233Z,83.70
2018-05-12T02:24:12.456Z,83.80
2018-05-12T02:26:38.561Z,84.40
2018-05-12T02:29:06.216Z,84.50
2018-05-12T02:31:39.294Z,84.90
2018-05-12T02:34:05.409Z,85.30
2018-05-12T02:36:31.867Z,85.50
2018-05-12T02:38:57.957Z,85.50
2018-05-12T02:41:24.178Z,85.40
2018-05-12T02:43:50.447Z,85.40
2018-05-12T02:46:16.567Z,85.50
2018-05-12T02:48:43.445Z,85.10
2018-05-12T02:51:09.676Z,85.00
2018-05-12T02:53:35.790Z,85.00
2018-05-12T02:56:03.051Z,86.30
2018-05-12T02:58:29.173Z,85.50
2018-05-12T03:00:55.430Z,85.40
2018-05-12T03:03:23.090Z,85.20
2018-05-12T03:05:49.233Z,85.40
2018-05-12T03:08:15.365Z,85.20
2018-05-12T03:10:41.533Z,85.10
2018-05-12T03:13:07.610Z,86.00
2018-05-12T03:15:33.943Z,84.60
2018-05-12T03:18:00.055Z,84.00
2018-05-12T03:20:26.246Z,83.50
2018-05-12T03:22:52.501Z,83.40
2018-05-12T03:25:18.624Z,83.10
2018-05-12T03:27:44.820Z,83.20
2018-05-12T03:30:10.930Z,82.90
2018-05-12T03:32:37.061Z,82.70
2018-05-12T03:35:03.381Z,82.50
2018-05-12T03:37:29.535Z,82.10
2018-05-12T03:39:55.685Z,81.70
2018-05-12T03:42:21.818Z,81.80
2018-05-12T03:44:47.898Z,82.60
2018-05-12T03:47:14.091Z,83.00
2018-05-12T03:49:40.284Z,83.20
2018-05-12T03:52:06.507Z,84.10
2018-05-12T03:54:32.599Z,85.00
2018-05-12T03:56:58.779Z,85.10
2018-05-12T03:59:24.958Z,85.60
2018-05-12T04:01:51.087Z,85.60
2018-05-12T04:04:29.511Z,85.00
2018-05-12T04:07:07.842Z,84.50
2018-05-12T04:09:46.133Z,83.80
2018-05-12T04:12:24.572Z,83.10
2018-05-12T04:14:50.933Z,82.60
2018-05-12T04:17:17.112Z,82.70
2018-05-12T04:19:43.242Z,82.90
2018-05-12T04:22:09.393Z,81.60
2018-05-12T04:24:35.497Z,79.70
2018-05-12T04:27:01.601Z,78.40
2018-05-12T04:29:30.885Z,78.50
2018-05-12T04:31:57.049Z,78.50
2018-05-12T04:34:23.151Z,77.80
2018-05-12T04:36:49.275Z,75.70
2018-05-12T04:39:16.153Z,71.20
2018-05-12T04:41:42.308Z,71.10
2018-05-12T04:44:08.397Z,72.00
2018-05-12T04:46:35.014Z,72.60
2018-05-12T04:49:01.176Z,72.60
2018-05-12T04:51:27.358Z,73.00
2018-05-12T04:53:53.555Z,73.40
2018-05-12T04:56:19.699Z,73.40
2018-05-12T04:58:45.795Z,73.30
2018-05-12T05:01:11.952Z,73.90
2018-05-12T05:03:38.093Z,74.20
2018-05-12T05:06:04.226Z,74.90
2018-05-12T05:08:30.357Z,75.00
2018-05-12T05:10:56.487Z,75.20
2018-05-12T05:13:22.685Z,74.40
2018-05-12T05:15:48.774Z,74.30
2018-05-12T05:18:14.947Z,75.30
2018-05-12T05:20:41.130Z,75.80
2018-05-12T05:23:08.002Z,75.70
2018-05-12T05:25:34.080Z,75.70
2018-05-12T05:28:00.532Z,75.60
2018-05-12T05:30:27.457Z,76.50
2018-05-12T05:32:53.598Z,76.50
2018-05-12T05:35:20.521Z,76.10
2018-05-12T05:37:46.673Z,76.00
2018-05-12T05:40:12.933Z,76.20
2018-05-12T05:42:43.123Z,76.10
2018-05-12T05:45:10.095Z,76.00
2018-05-12T05:47:36.246Z,76.00
2018-05-12T05:50:02.416Z,75.70
2018-05-12T05:52:29.335Z,74.20
2018-05-12T05:54:55.448Z,74.20
2018-05-12T05:57:21.662Z,74.20
2018-05-12T05:59:48.998Z,75.30
2018-05-12T06:02:15.137Z,75.20
2018-05-12T06:04:41.224Z,75.10
2018-05-12T06:07:08.171Z,74.60
2018-05-12T06:09:34.240Z,74.60
2018-05-12T06:12:00.354Z,74.60
2018-05-12T06:14:27.234Z,75.20
2018-05-12T06:16:53.355Z,76.30
2018-05-12T06:19:19.452Z,76.30
2018-05-12T06:21:45.642Z,76.60
2018-05-12T06:24:11.753Z,76.00
2018-05-12T06:26:37.931Z,75.30
2018-05-12T06:29:04.079Z,75.10
2018-05-12T06:31:30.491Z,75.70
2018-05-12T06:33:56.715Z,75.70
2018-05-12T06:36:23.089Z,74.00
2018-05-12T06:38:50.017Z,74.10
2018-05-12T06:41:18.529Z,74.10
2018-05-12T06:43:50.536Z,71.50
2018-05-12T06:46:16.905Z,71.50
2018-05-12T06:48:43.034Z,70.60
2018-05-12T06:51:09.253Z,70.30
2018-05-12T06:53:35.334Z,69.40
2018-05-12T06:56:01.500Z,68.70
2018-05-12T06:58:27.600Z,69.90
2018-05-12T07:00:54.999Z,70.50
2018-05-12T07:03:28.407Z,68.00
2018-05-12T07:05:59.007Z,66.90
2018-05-12T07:08:25.186Z,66.90
2018-05-12T07:10:53.438Z,66.90
2018-05-12T07:13:19.688Z,67.60
2018-05-12T07:15:45.825Z,67.60
2018-05-12T07:18:11.966Z,67.20
2018-05-12T07:20:39.704Z,66.20
2018-05-12T07:23:05.850Z,65.40
2018-05-12T07:25:32.061Z,64.80
2018-05-12T07:27:58.634Z,64.40
2018-05-12T07:30:25.298Z,64.00
2018-05-12T07:32:53.859Z,64.30
2018-05-12T07:35:20.096Z,64.30
2018-05-12T07:37:47.032Z,64.70
2018-05-12T07:40:13.478Z,64.70
2018-05-12T07:45:19.306Z,63.70
2018-05-12T07:47:45.585Z,63.00
2018-05-12T07:50:16.582Z,63.50
2018-05-12T07:52:49.137Z,63.30
2018-05-12T07:55:15.342Z,63.40
2018-05-12T07:57:48.720Z,63.90
2018-05-12T08:00:18.090Z,63.80
2018-05-12T08:02:44.198Z,63.30
2018-05-12T08:05:10.328Z,63.40
2018-05-12T08:07:36.461Z,63.10
2018-05-12T08:10:09.936Z,61.30
2018-05-12T08:12:36.375Z,61.40
2018-05-12T08:15:02.602Z,61.70
2018-05-12T08:17:38.866Z,62.10
2018-05-12T08:20:05.006Z,61.90
2018-05-12T08:22:31.204Z,61.80
2018-05-12T08:24:57.452Z,62.20
2018-05-12T08:27:23.685Z,61.50
2018-05-12T08:29:50.185Z,59.40
2018-05-12T08:32:16.501Z,59.10
2018-05-12T08:34:42.771Z,59.40
2018-05-12T08:37:09.222Z,59.80
2018-05-12T08:39:35.611Z,59.90
2018-05-12T08:42:02.007Z,59.10
2018-05-12T08:44:28.931Z,58.90
2018-05-12T08:46:55.573Z,58.70
2018-05-12T08:49:22.539Z,58.30
2018-05-12T08:51:48.912Z,58.00
2018-05-12T08:54:15.229Z,58.20
2018-05-12T08:56:41.701Z,58.60
2018-05-12T08:59:08.225Z,58.40
2018-05-12T09:01:35.751Z,58.30
2018-05-12T09:04:02.106Z,58.00
2018-05-12T09:06:28.633Z,57.40
2018-05-12T09:08:54.934Z,57.80
2018-05-12T09:11:21.265Z,57.60
2018-05-12T09:13:47.681Z,56.30
2018-05-12T09:16:14.044Z,56.60
2018-05-12T09:18:40.391Z,57.70
2018-05-12T09:21:07.262Z,57.00
2018-05-12T09:23:34.181Z,55.70
2018-05-12T09:26:01.144Z,55.60
2018-05-12T09:28:27.746Z,55.80
2018-05-12T09:30:54.116Z,55.40
2018-05-12T09:33:21.219Z,56.00
2018-05-12T09:35:47.381Z,56.00
2018-05-12T09:38:13.870Z,55.90
2018-05-12T09:40:43.609Z,53.00
2018-05-12T09:43:09.869Z,52.40
2018-05-12T09:45:36.353Z,52.50
2018-05-12T09:48:02.527Z,53.30
2018-05-12T09:50:31.253Z,52.60
2018-05-12T09:52:57.780Z,48.40
2018-05-12T09:55:24.083Z,46.80
2018-05-12T09:57:50.464Z,47.00
2018-05-12T10:00:16.734Z,50.00
2018-05-12T10:02:43.662Z,50.60
2018-05-12T10:05:11.395Z,50.50
2018-05-12T10:07:37.651Z,49.50
2018-05-12T10:10:04.512Z,47.50
2018-05-12T10:12:30.971Z,47.00
2018-05-12T10:14:57.256Z,47.20
2018-05-12T10:17:23.665Z,47.10
2018-05-12T10:19:54.477Z,47.20
2018-05-12T10:22:20.751Z,47.70
2018-05-12T10:24:46.982Z,46.80
2018-05-12T10:27:13.210Z,46.60
2018-05-12T10:29:39.669Z,45.50
2018-05-12T10:32:05.915Z,46.40
2018-05-12T10:34:32.303Z,45.80
2018-05-12T10:36:58.594Z,47.10
2018-05-12T10:39:24.905Z,47.80
2018-05-12T10:41:51.414Z,48.00
2018-05-12T10:44:17.749Z,47.30
2018-05-12T10:46:44.904Z,46.90
2018-05-12T10:49:11.211Z,46.90
2018-05-12T10:51:37.735Z,47.60
2018-05-12T10:54:04.169Z,46.70
2018-05-12T10:56:30.773Z,46.20
2018-05-12T10:58:57.226Z,46.00
2018-05-12T11:01:23.580Z,46.60
2018-05-12T11:03:49.814Z,45.90
2018-05-12T11:06:16.057Z,45.60
2018-05-12T11:08:42.334Z,45.90
2018-05-12T11:11:08.563Z,46.20
2018-05-12T11:13:34.746Z,45.40
2018-05-12T11:16:01.271Z,45.10
2018-05-12T11:18:28.420Z,45.30
2018-05-12T11:20:54.758Z,45.60
2018-05-12T11:23:21.089Z,45.40
2018-05-12T11:25:47.351Z,45.80
2018-05-12T11:28:13.963Z,45.60
2018-05-12T11:30:40.259Z,45.80
2018-05-12T11:33:06.488Z,45.80
2018-05-12T11:35:32.729Z,45.90
2018-05-12T11:37:58.966Z,46.00
2018-05-12T11:40:25.158Z,45.90
2018-05-12T11:42:51.461Z,45.80
2018-05-12T11:45:17.761Z,46.00
2018-05-12T11:47:43.965Z,45.90
2018-05-12T11:50:10.910Z,46.40
2018-05-12T11:52:37.105Z,46.30
2018-05-12T11:55:03.360Z,45.00
2018-05-12T11:57:29.487Z,44.60
2018-05-12T11:59:55.702Z,44.10
2018-05-12T12:02:21.907Z,44.60
2018-05-12T12:04:48.128Z,45.10
2018-05-12T12:07:14.372Z,45.20
2018-05-12T12:09:40.801Z,44.90
2018-05-12T12:12:07.108Z,45.20
2018-05-12T12:14:33.465Z,45.00
2018-05-12T12:16:59.725Z,44.50
2018-05-12T12:19:26.216Z,44.20
2018-05-12T12:21:52.390Z,44.10
2018-05-12T12:24:19.358Z,43.50
2018-05-12T12:26:45.507Z,43.50
2018-05-12T12:29:11.682Z,43.20
2018-05-12T12:31:37.867Z,43.10
2018-05-12T12:34:04.042Z,43.40
2018-05-12T12:36:30.215Z,43.70
2018-05-12T12:38:56.398Z,43.00
2018-05-12T12:41:23.280Z,43.70
2018-05-12T12:43:49.566Z,43.70
2018-05-12T12:46:15.830Z,44.30
2018-05-12T12:48:42.012Z,44.30
2018-05-12T12:51:08.317Z,45.10
2018-05-12T12:53:34.477Z,45.00
2018-05-12T12:56:00.765Z,45.20
2018-05-12T12:58:27.116Z,45.10
2018-05-12T13:00:53.270Z,44.70
2018-05-12T13:03:19.378Z,44.80
2018-05-12T13:05:47.754Z,45.00
2018-05-12T13:08:13.887Z,44.40
2018-05-12T13:10:40.877Z,44.70
2018-05-12T13:13:07.022Z,44.70
2018-05-12T13:15:33.155Z,42.90
2018-05-12T13:17:59.352Z,43.40
2018-05-12T13:20:25.562Z,43.80
2018-05-12T13:22:56.309Z,43.60
2018-05-12T13:25:22.531Z,42.70
2018-05-12T13:27:48.918Z,41.80
2018-05-12T13:30:15.798Z,41.40
2018-05-12T13:32:44.468Z,41.30
2018-05-12T13:35:10.979Z,41.50
2018-05-12T13:37:38.159Z,41.50
2018-05-12T13:40:04.495Z,42.50
2018-05-12T13:42:30.804Z,42.30
2018-05-12T13:44:56.977Z,41.40
2018-05-12T13:47:23.254Z,41.80
2018-05-12T13:49:49.419Z,41.60
2018-05-12T13:52:15.604Z,41.80
2018-05-12T13:54:41.900Z,41.90
2018-05-12T13:57:08.179Z,42.50
2018-05-12T13:59:35.236Z,42.10
2018-05-12T14:02:01.462Z,42.10
2018-05-12T14:04:27.624Z,42.40
2018-05-12T14:06:53.817Z,42.10
2018-05-12T14:09:21.043Z,42.30
2018-05-12T14:11:47.350Z,42.50
2018-05-12T14:14:13.500Z,42.70
2018-05-12T14:16:40.372Z,42.20
2018-05-12T14:19:06.720Z,42.20
2018-05-12T14:21:32.759Z,42.70
2018-05-12T14:24:06.056Z,42.60
2018-05-12T14:26:32.755Z,42.50
2018-05-12T14:29:02.137Z,42.60
2018-05-12T14:31:28.492Z,42.60
2018-05-12T14:33:54.652Z,42.60
2018-05-12T14:36:20.864Z,42.10
2018-05-12T14:38:47.018Z,41.70
2018-05-12T14:41:13.223Z,41.60
2018-05-12T14:43:40.961Z,40.70
2018-05-12T14:46:07.130Z,40.60
2018-05-12T14:48:33.276Z,40.90
2018-05-12T14:50:59.599Z,40.80
2018-05-12T14:53:25.943Z,40.90
2018-05-12T14:55:52.822Z,41.40
2018-05-12T14:58:19.202Z,41.40
2018-05-12T15:00:45.371Z,42.30
2018-05-12T15:03:12.150Z,41.60
2018-05-12T15:05:38.341Z,42.20
2018-05-12T15:08:05.974Z,42.30
2018-05-12T15:10:34.495Z,41.70
2018-05-12T15:13:01.507Z,41.60
2018-05-12T15:15:27.869Z,41.60
2018-05-12T15:17:54.044Z,40.90
2018-05-12T15:20:20.218Z,42.30
2018-05-12T15:22:46.406Z,42.10
2018-05-12T15:25:13.212Z,42.80
2018-05-12T15:27:39.342Z,43.10
2018-05-12T15:30:05.647Z,43.60
2018-05-12T15:32:35.777Z,44.00
2018-05-12T15:35:01.916Z,43.00
2018-05-12T15:37:28.078Z,42.40
2018-05-12T15:39:54.965Z,42.20
2018-05-12T15:42:21.154Z,42.20
2018-05-12T15:44:47.264Z,42.50
2018-05-12T15:47:13.397Z,42.60
2018-05-12T15:49:45.731Z,43.00
2018-05-12T15:52:11.918Z,42.90
2018-05-12T15:54:38.089Z,42.90
2018-05-12T15:57:04.179Z,43.00
2018-05-12T15:59:31.134Z,44.00
2018-05-12T16:01:57.281Z,43.50
2018-05-12T16:04:23.423Z,43.30
2018-05-12T16:06:50.427Z,43.40
2018-05-12T16:09:16.602Z,43.30
2018-05-12T16:11:42.745Z,43.60
2018-05-12T16:14:08.894Z,43.90
2018-05-12T16:16:35.772Z,44.10
2018-05-12T16:19:01.939Z,44.10
2018-05-12T16:21:28.149Z,43.60
2018-05-12T16:23:54.265Z,43.50
2018-05-12T16:26:20.421Z,43.90
2018-05-12T16:28:50.147Z,44.40
2018-05-12T16:31:16.346Z,44.20
2018-05-12T16:33:42.439Z,44.30
2018-05-12T16:36:08.566Z,44.10
2018-05-12T16:38:34.735Z,43.70
2018-05-12T16:41:00.876Z,43.90
2018-05-12T16:43:27.025Z,44.20
2018-05-12T16:45:53.232Z,45.20
2018-05-12T16:48:20.352Z,46.10
2018-05-12T16:50:46.632Z,45.90
2018-05-12T16:53:12.679Z,45.80
2018-05-12T16:55:38.820Z,45.20
2018-05-12T16:58:05.919Z,45.10
2018-05-12T17:00:32.747Z,45.00
2018-05-12T17:02:58.881Z,44.50
2018-05-12T17:05:24.956Z,44.60
2018-05-12T17:07:51.793Z,43.40
2018-05-12T17:10:18.622Z,43.40
2018-05-12T17:12:44.709Z,43.90
2018-05-12T17:15:11.855Z,44.50
2018-05-12T17:17:38.093Z,45.00
2018-05-12T17:20:05.398Z,45.90
2018-05-12T17:22:31.542Z,47.10
2018-05-12T17:24:57.759Z,47.30
2018-05-12T17:27:23.927Z,47.40
2018-05-12T17:29:50.228Z,47.60
2018-05-12T17:32:16.985Z,47.70
2018-05-12T17:34:47.864Z,48.00
2018-05-12T17:37:14.745Z,48.20
2018-05-12T17:39:40.982Z,48.20
2018-05-12T17:42:07.141Z,49.20
2018-05-12T17:44:33.362Z,48.80
2018-05-12T17:46:59.590Z,48.80
2018-05-12T17:49:25.765Z,48.40
2018-05-12T17:51:51.984Z,48.20
2018-05-12T17:54:18.489Z,47.90
2018-05-12T17:56:44.710Z,47.90
2018-05-12T17:59:10.921Z,48.30
2018-05-12T18:01:37.179Z,47.50
2018-05-12T18:04:03.466Z,47.70
2018-05-12T18:06:29.578Z,47.50
2018-05-12T18:08:56.055Z,48.00
2018-05-12T18:11:22.232Z,48.30
2018-05-12T18:13:48.431Z,49.30
2018-05-12T18:16:14.675Z,48.70
2018-05-12T18:18:40.935Z,49.50
2018-05-12T18:21:07.237Z,51.50
2018-05-12T18:23:33.805Z,52.70
2018-05-12T18:25:59.957Z,54.20
2018-05-12T18:28:26.124Z,56.10
2018-05-12T18:30:53.047Z,55.20
2018-05-12T18:33:19.237Z,55.10
2018-05-12T18:35:45.409Z,55.50
2018-05-12T18:38:11.651Z,55.50
2018-05-12T18:40:37.869Z,56.20
2018-05-12T18:43:04.148Z,57.00
2018-05-12T18:45:30.433Z,57.40
2018-05-12T18:47:57.381Z,57.60
2018-05-12T18:50:23.561Z,57.50
2018-05-12T18:52:49.822Z,60.20
2018-05-12T18:55:16.248Z,60.60
2018-05-12T18:57:45.115Z,59.70
2018-05-12T19:00:11.434Z,61.70
2018-05-12T19:02:38.265Z,59.60
2018-05-12T19:05:04.552Z,59.60
2018-05-12T19:07:30.637Z,58.20
2018-05-12T19:09:57.366Z,57.80
2018-05-12T19:12:23.508Z,57.60
2018-05-12T19:14:49.641Z,57.80
2018-05-12T19:17:15.838Z,57.40
2018-05-12T19:19:42.481Z,55.10
2018-05-12T19:22:08.729Z,55.80
2018-05-12T19:24:34.945Z,57.80
2018-05-12T19:27:01.068Z,59.40
2018-05-12T19:29:27.348Z,63.30
2018-05-12T19:31:53.646Z,60.00
2018-05-12T19:34:19.795Z,65.70
2018-05-12T19:36:46.685Z,68.50
2018-05-12T19:39:12.864Z,68.60
2018-05-12T19:41:39.030Z,73.00
2018-05-12T19:44:05.215Z,70.40
2018-05-12T19:46:31.301Z,70.60
2018-05-12T19:48:57.416Z,70.70
2018-05-12T19:51:23.592Z,74.60
2018-05-12T19:53:49.718Z,74.20
2018-05-12T19:56:15.796Z,77.10
2018-05-12T19:58:41.912Z,78.00
2018-05-12T20:01:08.014Z,81.10
2018-05-12T20:03:34.138Z,80.60
2018-05-12T20:06:00.250Z,81.60
2018-05-12T20:08:26.416Z,80.80
2018-05-12T20:10:52.533Z,78.00
2018-05-12T20:13:19.585Z,79.20
2018-05-12T20:15:45.756Z,79.70
2018-05-12T20:18:11.867Z,78.30
2018-05-12T20:20:38.100Z,78.40
2018-05-12T20:23:04.250Z,78.90
2018-05-12T20:25:30.338Z,79.00
2018-05-12T20:27:56.437Z,78.60
2018-05-12T20:30:22.542Z,79.50
2018-05-12T20:32:49.290Z,79.40
2018-05-12T20:35:15.445Z,79.40
2018-05-12T20:37:41.578Z,79.80
2018-05-12T20:40:07.757Z,80.80
2018-05-12T20:42:34.005Z,80.30
2018-05-12T20:45:00.173Z,80.30
2018-05-12T20:47:26.289Z,80.20
2018-05-12T20:49:52.869Z,80.10
2018-05-12T20:52:18.990Z,80.10
2018-05-12T20:54:45.101Z,80.50
2018-05-12T20:57:11.965Z,80.20
2018-05-12T20:59:38.396Z,80.10
2018-05-12T21:02:04.507Z,81.60
2018-05-12T21:04:30.643Z,81.90
2018-05-12T21:06:56.762Z,82.40
2018-05-12T21:09:23.642Z,77.80
2018-05-12T21:11:49.767Z,78.60
2018-05-12T21:14:15.892Z,78.80
2018-05-12T21:16:41.997Z,81.70
2018-05-12T21:19:08.139Z,80.90
2018-05-12T21:21:34.273Z,81.20
2018-05-12T21:24:00.452Z,81.70
2018-05-12T21:26:26.620Z,82.20
2018-05-12T21:28:52.685Z,81.20
2018-05-12T21:31:18.807Z,82.40
2018-05-12T21:33:44.894Z,82.70
2018-05-12T21:36:11.122Z,84.00
2018-05-12T21:38:37.215Z,84.70
2018-05-12T21:41:03.359Z,85.00
2018-05-12T21:43:29.489Z,85.30
2018-05-12T21:45:55.605Z,85.10
2018-05-12T21:48:21.739Z,83.80
2018-05-12T21:50:47.851Z,84.70
2018-05-12T21:53:13.961Z,85.30
2018-05-12T21:55:40.097Z,86.00
2018-05-12T21:58:06.218Z,85.00
2018-05-12T22:00:32.304Z,85.20
2018-05-12T22:02:58.461Z,85.20
2018-05-12T22:05:24.730Z,84.90
2018-05-12T22:07:50.862Z,84.70
2018-05-12T22:10:17.071Z,85.00
2018-05-12T22:12:43.188Z,83.80
2018-05-12T22:15:09.304Z,83.50
2018-05-12T22:17:35.377Z,84.10
2018-05-12T22:20:01.544Z,85.50
2018-05-12T22:22:27.642Z,85.70
2018-05-12T22:24:53.938Z,85.60
2018-05-12T22:27:20.023Z,86.10
2018-05-12T22:29:46.396Z,86.20
2018-05-12T22:32:12.544Z,85.80
2018-05-12T22:34:38.789Z,84.80
2018-05-12T22:37:05.617Z,84.90
2018-05-12T22:39:31.928Z,84.90
2018-05-12T22:41:58.118Z,83.50
2018-05-12T22:44:24.197Z,82.70
2018-05-12T22:46:51.086Z,82.30
2018-05-12T22:49:17.635Z,81.50
2018-05-12T22:51:43.817Z,80.40
2018-05-12T22:54:09.975Z,80.20
2018-05-12T22:56:36.117Z,79.40
2018-05-12T22:59:02.221Z,78.90
2018-05-12T23:01:28.353Z,80.40
2018-05-12T23:03:54.537Z,80.00
2018-05-12T23:06:20.808Z,79.20
2018-05-12T23:08:46.940Z,79.50
2018-05-12T23:11:13.160Z,80.90
2018-05-12T23:13:39.410Z,81.40
2018-05-12T23:16:05.535Z,82.20
2018-05-12T23:18:31.833Z,82.30
2018-05-12T23:20:57.881Z,83.80
2018-05-12T23:23:24.053Z,86.10
2018-05-12T23:25:50.153Z,87.70
2018-05-12T23:28:16.427Z,88.40
2018-05-12T23:30:42.527Z,89.20
2018-05-12T23:33:08.662Z,89.60
2018-05-12T23:35:35.493Z,90.00
2018-05-12T23:38:01.681Z,90.00
2018-05-12T23:40:27.823Z,89.80
2018-05-12T23:42:53.962Z,90.00
2018-05-12T23:45:20.049Z,90.10
2018-05-12T23:47:46.176Z,90.10
2018-05-12T23:50:12.289Z,90.20
2018-05-12T23:52:38.422Z,90.10
2018-05-12T23:55:04.540Z,89.30
2018-05-12T23:57:30.703Z,88.80
2018-05-12T23:59:56.797Z,88.30
